Terminal Aerodrome Forecast
Issued by NWS

Home | Current Version | Previous Version | Text Only | Print | Product List | Glossary On
Versions: 1 2 3 4 5 6 7 8 9 10 11 12 13 14 15 16 17 18 19 20
000
FTUS42 KTBW 302300
TAFLAL
TAF
KLAL 302338Z 0100/0124 VRB03KT P6SM VCSH SCT020 SCT080 BKN250
      TEMPO 0100/0103 4SM SHRA BKN020
     FM010300 VRB03KT P6SM SCT015 SCT080
     FM011300 VRB03KT P6SM VCSH SCT015 SCT080
     FM011600 27005KT P6SM VCTS SCT025CB BKN080
      AMD NOT SKED 0103/0112=

USA.gov is the U.S. government's official web portal to all federal, state and local government web resources and services.